createdAt,value
2023-10-31T00:09:15.949Z,99.99
2023-10-31T00:24:16.753Z,99.99
2023-10-31T00:39:17.491Z,99.99
2023-10-31T00:54:18.240Z,99.99
2023-10-31T01:09:18.994Z,99.99
2023-10-31T01:24:19.710Z,99.99
2023-10-31T01:39:20.448Z,99.99
2023-10-31T01:54:21.288Z,99.99
2023-10-31T02:09:21.530Z,99.99
2023-10-31T02:24:22.148Z,99.99
2023-10-31T02:39:22.924Z,99.99
2023-10-31T02:54:23.682Z,99.99
2023-10-31T03:09:24.425Z,99.99
2023-10-31T03:24:25.176Z,99.99
2023-10-31T03:39:25.884Z,99.99
2023-10-31T03:54:26.606Z,99.99
2023-10-31T04:09:27.365Z,99.99
2023-10-31T04:24:28.135Z,99.99
2023-10-31T04:39:28.835Z,99.99
2023-10-31T04:54:29.505Z,99.99
2023-10-31T05:09:30.116Z,99.99
2023-10-31T05:24:30.736Z,99.99
2023-10-31T05:39:31.341Z,99.99
2023-10-31T05:54:31.901Z,99.99
2023-10-31T06:09:32.580Z,99.99
2023-10-31T06:24:33.109Z,99.82
2023-10-31T06:39:33.574Z,99.47
2023-10-31T06:54:34.008Z,99.67
2023-10-31T07:09:34.511Z,99.37
2023-10-31T07:24:35.027Z,98.03
2023-10-31T07:39:35.656Z,96.75
2023-10-31T07:54:36.169Z,96.09
2023-10-31T08:09:36.699Z,95.27
2023-10-31T08:24:37.212Z,93.46
2023-10-31T08:39:37.684Z,94.24
2023-10-31T08:54:38.271Z,91.78
2023-10-31T09:09:38.740Z,92.29
2023-10-31T09:24:39.129Z,91.02
2023-10-31T09:39:39.646Z,89.99
2023-10-31T09:54:40.123Z,91.02
2023-10-31T10:09:40.549Z,88.41
2023-10-31T10:24:41.742Z,88.41
2023-10-31T10:39:42.063Z,88.57
2023-10-31T10:54:42.435Z,87.98
2023-10-31T11:09:42.729Z,84.46
2023-10-31T11:24:43.069Z,81.65
2023-10-31T11:39:43.452Z,81.10
2023-10-31T11:54:44.623Z,82.09
2023-10-31T12:09:45.076Z,77.11
2023-10-31T12:24:45.508Z,76.23
2023-10-31T12:39:45.839Z,80.07
2023-10-31T12:54:46.207Z,82.15
2023-10-31T13:09:46.596Z,92.79
2023-10-31T13:24:47.556Z,91.97
2023-10-31T13:39:47.453Z,91.93
2023-10-31T13:54:47.842Z,91.89
2023-10-31T14:09:48.217Z,87.38
2023-10-31T14:24:48.615Z,87.90
2023-10-31T14:39:49.061Z,88.51
2023-10-31T14:54:49.326Z,89.94
2023-10-31T15:09:49.695Z,89.94
2023-10-31T15:24:49.977Z,88.45
2023-10-31T15:39:50.285Z,88.29
2023-10-31T15:54:50.757Z,87.98
2023-10-31T16:09:51.190Z,87.61
2023-10-31T16:24:52.088Z,89.04
2023-10-31T16:39:52.492Z,88.68
2023-10-31T16:54:52.833Z,88.06
2023-10-31T17:09:53.326Z,88.27
2023-10-31T17:24:55.127Z,88.51
2023-10-31T17:39:54.272Z,88.10
2023-10-31T17:54:54.773Z,87.70
2023-10-31T18:09:55.385Z,88.62
2023-10-31T18:24:55.993Z,89.39
2023-10-31T18:39:56.746Z,90.93
2023-10-31T18:54:57.384Z,90.93
2023-10-31T19:09:58.045Z,93.54
2023-10-31T19:24:58.635Z,95.84
2023-10-31T19:39:59.299Z,95.64
2023-10-31T19:55:00.005Z,94.81
2023-10-31T20:10:00.748Z,93.99
2023-10-31T20:25:01.558Z,93.48
2023-10-31T20:40:02.277Z,92.66
2023-10-31T20:55:03.008Z,91.18
2023-10-31T21:10:03.803Z,92.31
2023-10-31T21:25:04.501Z,92.41
2023-10-31T21:40:05.329Z,93.07
2023-10-31T21:55:05.683Z,92.66
2023-10-31T22:10:05.872Z,92.50
2023-10-31T22:25:06.628Z,91.63
2023-10-31T22:40:07.354Z,91.74
2023-10-31T22:55:08.084Z,92.19
2023-10-31T23:10:08.947Z,91.67
2023-10-31T23:25:09.665Z,91.00
2023-10-31T23:40:10.412Z,90.80
2023-10-31T23:55:11.123Z,90.22
